Station: NOARLUNGA AWS

  Atmospheric Gas Attenuation - ITU Rec 676-11   --------------- db/100km ---------------
Date Time Temp RH % AH g/m3 Dew Point Wind Direction Speed kph Gust kph Barometer mB Rainfall Since 9am 24GHz 47GHz 76GHz 122GHz 134GHz 241GHz
21 19:00 13.9 77 9.23 9.9 24 35 1013.1 0 20.9 26.9 42.3 111.1 106.7 367.4
21 18:50 13.9 77 9.23 9.9 22 30 1013.1 0 20.9 26.9 42.3 111.1 106.7 367.4
21 18:40 13.8 78 9.29 10 22 30 1013.1 0 21.1 27.0 42.6 111.9 107.6 370.7
21 18:30 13.8 79 9.41 10.2 22 37 1013.1 0 21.3 27.2 43.1 113.2 109.2 376.4
21 18:20 13.7 80 9.47 10.3 26 35 1013.1 0 21.5 27.3 43.4 114.1 110.2 379.8
21 18:10 13.7 80 9.47 10.3 24 32 1013.1 0 21.5 27.3 43.4 114.1 110.2 379.8
21 18:00 13.9 80 9.59 10.5 26 50 1013.1 0 21.7 27.5 43.8 115.1 111.6 384.5
21 17:50 14.1 77 9.35 10.1 22 33 1013.1 0 21.2 27.0 42.7 112.2 108.0 372.2
21 17:40 14.1 78 9.47 10.3 32 43 1013.1 0 21.4 27.2 43.2 113.5 109.6 377.8
21 17:30 14.1 79 9.59 10.5 32 50 1013.1 0 21.7 27.4 43.7 114.8 111.3 383.6
21 17:20 14.7 74 9.32 10.1 22 32 1013.1 0 21.1 26.8 42.2 111.0 106.8 367.9
21 17:10 14.3 79 9.71 10.7 19 28 1013.1 0 21.9 27.6 44.1 115.8 112.6 388.3
21 17:00 14.1 82 9.95 11.1 24 46 1013.1 0 22.5 28.0 45.2 118.8 116.2 400.8
21 16:50 16.2 66 9.1 9.8 32 43 1013.1 0 20.5 26.0 40.6 106.5 101.9 350.9
21 16:40 16.3 66 9.16 9.9 26 37 1013.1 0 20.7 26.1 40.8 107.0 102.5 353.2
21 16:30 16.3 64 8.88 9.5 28 43 1013.1 0 20.1 25.6 39.7 104.1 98.9 340.5
21 16:20 17.3 61 8.99 9.7 28 41 1013.1 0 20.2 25.5 39.6 103.9 99.0 341.1
21 16:10 17.6 62 9.3 10.2 19 28 1013.1 0 20.9 25.9 40.6 106.8 102.6 353.7
21 16:00 17.4 61 9.04 9.8 24 43 1013.1 0 20.4 25.6 39.7 104.3 99.5 342.9
21 15:50 18.1 58 8.96 9.9 24 32 1013.1 0 20.1 25.2 39.1 102.6 97.6 336.4
21 15:40 18.3 59 9.22 10.1 19 24 1013.1 0 20.7 25.6 40.0 105.0 100.7 347.0
21 15:30 18 57 8.75 9.4 24 39 1013.1 0 19.7 24.9 38.3 100.6 95.1 327.5
21 15:20 17.2 59 8.64 9.1 26 33 1013.1 0 19.5 25.0 38.3 100.5 94.7 326.0
21 15:10 18.1 58 8.96 9.9 22 30 1013.1 0 20.1 25.2 39.1 102.6 97.6 336.4
21 15:00 18.3 58 9.07 9.9 22 35 1013.1 0 20.4 25.3 39.4 103.5 98.8 340.4
21 14:50 18.4 57 8.96 9.7 20 35 1013.1 0 20.1 25.1 38.9 102.2 97.3 335.1
21 14:40 18.2 58 9.01 9.8 24 32 1013.1 0 20.2 25.3 39.2 103.0 98.1 338.2
21 14:30 18.1 55 8.5 8.9 26 43 1013.1 0 19.2 24.5 37.3 97.9 91.9 316.2
21 14:20 18.1 57 8.81 9.4 32 43 1013.1 0 19.8 25.0 38.5 101.1 95.7 329.8
21 14:10 17.9 60 9.16 10 28 35 1013.1 0 20.6 25.6 39.9 104.9 100.4 346.1
21 14:00 18 62 9.52 10.6 22 39 1013.1 0 21.3 26.1 41.3 108.5 104.9 361.8
21 13:50 18.3 62 9.69 10.9 22 30 1013.1 0 21.7 26.3 41.8 109.9 106.7 368.1
21 13:40 17.4 63 9.34 10.3 28 39 1013.1 0 21.0 26.0 40.9 107.4 103.4 356.4
21 13:30 17.6 63 9.45 10.5 24 39 1013.1 0 21.2 26.1 41.2 108.3 104.5 360.5
21 13:20 17.3 61 8.99 9.7 33 41 1013.1 0 20.2 25.5 39.6 103.9 99.0 341.1
21 13:10 17.7 60 9.05 9.8 33 41 1013.1 0 20.4 25.5 39.6 104.0 99.3 342.1
21 13:00 17.6 61 9.15 10 30 43 1013.1 0 20.6 25.7 40.1 105.2 100.7 347.0
21 12:50 17.2 61 8.93 9.6 26 35 1013.1 0 20.1 25.4 39.4 103.4 98.4 338.9
21 12:40 17 57 8.25 8.4 37 54 1013.1 0 18.7 24.4 36.9 96.7 90.0 309.6
21 12:30 18.7 54 8.64 9.2 30 50 1013.1 0 19.4 24.6 37.6 98.6 92.9 319.9
21 12:20 17.9 53 8.09 8.4 41 50 1013.1 0 18.3 24.0 35.9 94.1 87.0 299.3
21 12:10 16.9 55 7.91 8 37 44 1013.1 0 18.0 23.9 35.7 93.4 85.9 295.2
21 12:00 16.9 57 8.2 8.3 30 46 1013.1 0 18.6 24.4 36.7 96.3 89.5 307.8
21 11:50 16.9 54 7.77 7.5 35 50 1013.1 0 17.7 23.7 35.1 92.0 84.2 289.2
21 11:40 16.8 54 7.72 7.4 39 52 1013.1 0 17.6 23.7 35.0 91.6 83.7 287.4
21 11:30 17.1 52 7.57 7.2 39 59 1013.1 0 17.3 23.4 34.3 89.8 81.6 279.9
21 11:20 17.7 51 7.69 7.4 30 39 1013.1 0 17.5 23.4 34.5 90.3 82.4 282.9
21 11:10 17.4 48 7.11 6.5 37 46 1013.1 0 16.3 22.6 32.5 85.0 75.7 259.5
21 11:00 17.5 51 7.6 7.3 37 57 1013.1 0 17.3 23.3 34.2 89.7 81.5 279.8
21 10:50 17.6 47 7.05 6.4 39 56 1013.1 0 16.1 22.5 32.2 84.2 74.8 256.4
21 10:40 17.4 50 7.41 7.1 39 52 1013.1 0 16.9 23.1 33.6 87.9 79.3 272.1
21 10:30 17 52 7.52 7.1 37 54 1013.1 0 17.1 23.3 34.2 89.4 81.0 278.1
21 10:20 16.7 51 7.25 6.5 41 52 1013.1 0 16.6 23.0 33.3 87.1 78.1 267.7
21 10:10 16.5 51 7.16 6.3 37 46 1013.1 0 16.4 22.9 33.0 86.5 77.2 264.5
21 10:00 16.1 52 7.13 6.3 37 56 1013.1 0 16.4 23.0 33.1 86.6 77.2 264.6
21 09:50 16 52 7.08 6.1 39 59 1013.1 0 16.3 22.9 33.0 86.2 76.7 262.8
21 09:40 15.9 54 7.31 6.6 28 39 1013.1 0 16.8 23.3 33.8 88.6 79.6 272.9
21 09:30 15.5 52 6.87 5.7 32 54 1013.1 0 15.8 22.7 32.4 84.7 74.6 255.5
21 09:20 15.3 52 6.79 5.7 37 44 1013.1 0 15.7 22.7 32.2 84.1 73.9 252.7
21 09:10 15.3 54 7.05 6 32 41 1013.1 0 16.2 23.1 33.1 86.7 77.0 263.8
21 09:00 14.9 54 6.88 5.7 28 46 1013.1 0 15.9 22.9 32.7 85.4 75.3 257.8
21 08:50 14.5 54 6.72 5.3 30 37 1013.1 2.4 15.6 22.8 32.2 84.3 73.8 252.2
21 08:40 14.2 55 6.72 5.3 30 43 1013.1 2.4 15.6 22.9 32.4 84.6 74.0 253.2
21 08:30 13.7 58 6.87 5.6 26 35 1013.1 2.4 15.9 23.2 33.1 86.6 76.4 261.3
21 08:20 13.4 59 6.86 5.5 28 35 1013.1 2.4 15.9 23.3 33.2 86.8 76.5 261.8
21 08:10 13.1 62 7.08 6 26 35 1013.1 2.4 16.4 23.7 34.2 89.4 79.6 272.5
21 08:00 13 64 7.26 6.4 22 35 1013.1 2.4 16.8 24.0 34.9 91.3 82.0 280.8
21 07:50 12.6 65 7.19 6.2 24 30 1013.1 2.4 16.6 24.0 34.8 91.1 81.5 279.1
21 07:40 12.4 68 7.43 6.6 24 33 1013.1 2.4 17.2 24.4 35.8 93.8 84.8 290.6
21 07:30 12 71 7.57 6.9 22 32 1013.1 2.4 17.5 24.7 36.5 95.8 87.0 298.4
21 07:20 11.8 73 7.68 7.1 19 22 1013.1 2.4 17.7 25.0 37.1 97.2 88.7 304.2
21 07:10 12 72 7.67 7.1 20 24 1013.1 2.4 17.7 24.9 36.9 96.8 88.3 303.0
21 07:00 12.9 68 7.66 7.1 19 30 1013.1 2.4 17.6 24.6 36.5 95.6 87.2 299.1
21 06:50 12.5 69 7.59 7.1 17 24 1013.1 2.4 17.5 24.6 36.4 95.4 86.7 297.4
21 06:40 12.2 70 7.55 6.9 17 19 1013.1 2.4 17.4 24.7 36.4 95.3 86.5 296.8
21 06:30 12 71 7.57 6.9 13 19 1013.1 2.4 17.5 24.7 36.5 95.8 87.0 298.4
21 06:20 12.1 70 7.51 6.8 13 13 1013.1 2.4 17.3 24.6 36.3 95.0 86.1 295.3
21 06:10 12 71 7.57 6.9 17 20 1013.1 2.4 17.5 24.7 36.5 95.8 87.0 298.4
21 06:00 12.1 70 7.51 6.8 15 24 1013.1 2.4 17.3 24.6 36.3 95.0 86.1 295.3
21 05:50 12.1 70 7.51 6.8 13 17 1013.1 2.4 17.3 24.6 36.3 95.0 86.1 295.3
21 05:40 12.1 70 7.51 6.8 13 19 1013.1 2.4 17.3 24.6 36.3 95.0 86.1 295.3
21 05:30 12.2 71 7.66 7.1 17 24 1013.1 2.4 17.7 24.8 36.8 96.5 88.0 301.8
21 05:20 12.2 73 7.88 7.5 19 22 1013.1 2.4 18.1 25.2 37.7 98.8 90.8 311.9
21 05:10 12.2 74 7.99 7.7 13 17 1013.1 2.4 18.4 25.4 38.1 100.0 92.3 316.9
21 04:50 12.3 75 8.14 8 15 19 1013.1 2.4 18.7 25.6 38.7 101.5 94.2 323.5
21 04:40 12.2 76 8.2 8.1 15 19 1013.1 2.4 18.8 25.7 39.0 102.2 95.1 326.7
21 04:30 12.4 75 8.2 8.1 19 26 1013.1 2.4 18.8 25.6 38.9 102.0 94.8 325.8
21 04:20 12.4 76 8.3 8.3 17 30 1013.1 2.4 19.0 25.8 39.3 103.1 96.2 330.5
21 04:10 12.5 74 8.14 8 13 19 1013.1 2.4 18.7 25.5 38.6 101.2 93.9 322.6
21 04:00 12.5 72 7.92 7.6 17 28 1013.1 2.4 18.2 25.2 37.7 98.9 91.0 312.5
21 03:50 12.5 71 7.81 7.4 19 28 1013.1 2.4 18.0 25.0 37.3 97.7 89.6 307.5
21 03:40 12.7 69 7.68 7.1 24 28 1013.1 2.4 17.7 24.7 36.7 96.1 87.7 300.8
21 03:30 12.6 71 7.86 7.5 17 26 1013.1 2.4 18.1 25.0 37.4 98.1 90.1 309.4
21 03:20 12.6 70 7.74 7.4 17 20 1013.1 2.4 17.8 24.8 36.9 96.8 88.6 303.9
21 03:10 12.6 69 7.63 7.2 17 22 1013.1 2.4 17.6 24.7 36.5 95.7 87.1 298.9
21 03:00 12.6 71 7.86 7.5 17 24 1013.1 2.4 18.1 25.0 37.4 98.1 90.1 309.4
21 02:50 12.8 69 7.73 7.4 20 24 1013.1 2.4 17.8 24.8 36.8 96.5 88.2 302.7
21 02:40 12.9 69 7.78 7.3 15 24 1013.1 2.4 17.9 24.8 37.0 96.9 88.7 304.5
21 02:30 12.9 69 7.78 7.4 19 33 1013.1 2.4 17.9 24.8 37.0 96.9 88.7 304.5
21 02:20 12.8 67 7.51 6.8 24 32 1013.1 2.4 17.3 24.4 36.0 94.2 85.4 292.7

Last Refresh: 21-Sep-2020 19:15:27

Most of the information presented on this site is sourced from the Bureau of Meteorology.  Copyright in all material sourced from the Bureau of Meteorology resides with the Commonwealth of Australia.